Time;durP1;ratioP1;P1;durP2;ratioP2;P2;SDS_P1;SDS_P2;PMS_P1;PMS_P2;Temp;Humidity;BMP_temperature;BMP_pressure;BME280_temperature;BME280_humidity;BME280_pressure;Samples;Min_cycle;Max_cycle;Signal;HPM_P1;HPM_P2
2023/10/06 05:12:17;;;;;;;;;;;;;;;7.01;100.00;100687.13;5628161;23;20141;-82
2023/10/06 05:14:45;;;;;;;;;;;;;;;6.93;100.00;100691.66;5023589;28;20370;-82
2023/10/06 05:17:16;;;;;;;;;;;;;;;6.99;100.00;100685.41;5025603;28;20004;-82
2023/10/06 05:19:41;;;;;;;;;;;;;;;6.93;100.00;100677.59;5024632;28;20015;-83
2023/10/06 05:22:06;;;;;;;;;;;;;;;6.82;100.00;100688.28;5025570;28;19995;-83
2023/10/06 05:24:32;;;;;;;;;;;;;;;6.73;100.00;100684.00;5006776;28;20379;-83
2023/10/06 05:26:57;;;;;;;;;;;;;;;6.67;100.00;100687.59;5023180;28;20065;-83
2023/10/06 05:29:25;;;;;;;;;;;;;;;6.72;100.00;100683.13;5005773;28;19917;-83
2023/10/06 05:31:50;;;;;;;;;;;;;;;6.65;100.00;100684.13;5023519;28;20269;-83
2023/10/06 05:34:17;;;;;;;;;;;;;;;6.62;100.00;100691.16;5024358;28;19928;-83
2023/10/06 05:36:42;;;;;;;;;;;;;;;6.57;100.00;100693.84;5014552;28;19961;-83
2023/10/06 05:39:11;;;;;;;;;;;;;;;6.59;100.00;100685.91;5024381;28;19964;-82
2023/10/06 05:41:37;;;;;;;;;;;;;;;6.56;100.00;100681.59;5022523;28;20319;-82
2023/10/06 05:44:02;;;;;;;;;;;;;;;6.53;100.00;100676.34;5024743;28;19995;-83
2023/10/06 05:46:27;;;;;;;;;;;;;;;6.54;100.00;100672.81;5024420;28;19917;-84
2023/10/06 05:48:53;;;;;;;;;;;;;;;6.43;100.00;100670.31;5024083;28;19917;-83
2023/10/06 05:51:21;;;;;;;;;;;;;;;6.41;100.00;100679.13;5024177;28;19921;-82
2023/10/06 05:53:48;;;;;;;;;;;;;;;6.34;100.00;100676.56;5023416;28;19921;-84
2023/10/06 05:56:15;;;;;;;;;;;;;;;6.33;100.00;100680.09;5022974;28;20390;-84
2023/10/06 05:58:43;;;;;;;;;;;;;;;6.32;100.00;100678.34;5024212;28;19922;-84
2023/10/06 06:01:13;;;;;;;;;;;;;;;6.32;100.00;100667.81;5024072;28;20285;-84
2023/10/06 06:03:45;;;;;;;;;;;;;;;6.28;100.00;100673.97;5023474;28;19975;-83
2023/10/06 06:06:10;;;;;;;;;;;;;;;6.25;100.00;100667.91;5023694;28;19921;-84
2023/10/06 06:08:37;;;;;;;;;;;;;;;6.20;100.00;100661.81;5023956;28;19962;-84
2023/10/06 06:11:05;;;;;;;;;;;;;;;6.20;100.00;100683.72;5004177;28;19925;-83
2023/10/06 06:13:30;;;;;;;;;;;;;;;6.16;100.00;100687.31;5023644;28;20281;-83
2023/10/06 06:15:55;;;;;;;;;;;;;;;6.14;100.00;100692.56;5024368;28;19917;-84
2023/10/06 06:18:21;;;;;;;;;;;;;;;6.16;100.00;100692.56;5023919;28;20403;-86
2023/10/06 06:20:46;;;;;;;;;;;;;;;6.10;100.00;100690.84;5022670;28;20331;-86
2023/10/06 06:23:15;;;;;;;;;;;;;;;6.10;100.00;100692.63;5023672;28;19921;-84
2023/10/06 06:25:41;;;;;;;;;;;;;;;6.06;100.00;100694.38;5022872;28;20011;-84
2023/10/06 06:28:08;;;;;;;;;;;;;;;6.13;100.00;100687.34;5022705;28;20015;-84
2023/10/06 06:30:39;;;;;;;;;;;;;;;6.05;100.00;100691.78;5023742;28;20384;-84
2023/10/06 06:33:05;;;;;;;;;;;;;;;6.00;100.00;100684.81;5023786;28;19925;-85
2023/10/06 06:35:32;;;;;;;;;;;;;;;5.96;100.00;100690.97;5023074;28;19921;-84
2023/10/06 07:45:32;;;;;;;;;;;;;;;5.44;100.00;100755.34;4970315;28;19972;-83
2023/10/06 07:47:58;;;;;;;;;;;;;;;5.42;100.00;100757.09;4973482;28;19959;-81
2023/10/06 07:50:26;;;;;;;;;;;;;;;5.43;100.00;100748.34;4973684;28;19919;-80
2023/10/06 07:52:52;;;;;;;;;;;;;;;5.41;100.00;100750.13;4973122;28;19945;-80
2023/10/06 07:55:21;;;;;;;;;;;;;;;5.46;100.00;100736.94;4973002;28;19996;-80
2023/10/06 07:57:47;;;;;;;;;;;;;;;5.55;100.00;100736.91;4971393;28;19922;-81
2023/10/06 08:00:18;;;;;;;;;;;;;;;5.60;100.00;100735.09;4973364;28;19922;-81
2023/10/06 08:02:47;;;;;;;;;;;;;;;5.61;100.00;100743.84;4972147;28;20024;-80
2023/10/06 08:05:17;;;;;;;;;;;;;;;5.66;100.00;100738.56;4973289;28;19976;-80
2023/10/06 08:07:42;;;;;;;;;;;;;;;5.61;100.00;100735.97;4973466;28;19920;-81
2023/10/06 08:10:13;;;;;;;;;;;;;;;5.59;100.00;100743.84;4967019;28;19922;-83
2023/10/06 08:12:38;;;;;;;;;;;;;;;5.69;100.00;100738.53;4970508;28;19922;-79
2023/10/06 08:15:09;;;;;;;;;;;;;;;5.71;100.00;100740.28;4973250;28;19914;-80
2023/10/06 08:17:35;;;;;;;;;;;;;;;5.68;100.00;100740.31;4973180;28;19925;-80
2023/10/06 08:20:00;;;;;;;;;;;;;;;5.69;100.00;100731.50;4973109;28;19918;-85
2023/10/06 08:22:26;;;;;;;;;;;;;;;5.65;100.00;100737.69;4973087;28;19944;-82
2023/10/06 08:24:53;;;;;;;;;;;;;;;5.70;100.00;100745.56;4972914;28;20349;-85
2023/10/06 08:27:21;;;;;;;;;;;;;;;5.69;100.00;100743.78;4970575;28;20009;-83
2023/10/06 08:29:46;;;;;;;;;;;;;;;5.61;100.00;100747.34;4972994;28;19918;-84
2023/10/06 08:32:12;;;;;;;;;;;;;;;5.64;100.00;100746.47;4971702;28;19925;-83
2023/10/06 08:34:39;;;;;;;;;;;;;;;5.70;100.00;100754.31;4973022;28;20301;-80
2023/10/06 08:37:10;;;;;;;;;;;;;;;5.72;100.00;100751.66;4973036;28;19976;-84
2023/10/06 08:39:38;;;;;;;;;;;;;;;5.70;100.00;100758.69;4972828;28;19922;-81
2023/10/06 08:42:06;;;;;;;;;;;;;;;5.75;100.00;100768.28;4972812;28;19972;-80
2023/10/06 08:44:32;;;;;;;;;;;;;;;5.67;100.00;100761.34;4971488;28;19922;-84
2023/10/06 08:46:57;;;;;;;;;;;;;;;5.63;100.00;100761.38;4972120;28;19924;-80
2023/10/06 08:49:23;;;;;;;;;;;;;;;5.58;100.00;100762.28;4972867;28;19914;-79
2023/10/06 08:51:49;;;;;;;;;;;;;;;5.66;100.00;100762.22;4973116;28;20001;-80
2023/10/06 08:54:14;;;;;;;;;;;;;;;5.67;100.00;100766.63;4972742;28;20006;-79
2023/10/06 08:56:40;;;;;;;;;;;;;;;5.64;100.00;100760.47;4972720;28;19925;-80
2023/10/06 08:59:05;;;;;;;;;;;;;;;5.64;100.00;100752.56;4969435;28;19972;-81
2023/10/06 09:01:32;;;;;;;;;;;;;;;5.57;100.00;100758.78;4955333;28;19925;-82
2023/10/06 09:04:01;;;;;;;;;;;;;;;5.59;100.00;100754.38;4972444;28;19918;-82
2023/10/06 09:06:26;;;;;;;;;;;;;;;5.58;100.00;100747.34;4972858;28;20013;-80
2023/10/06 09:08:51;;;;;;;;;;;;;;;5.63;100.00;100753.47;4975927;28;19957;-80
2023/10/06 09:11:20;;;;;;;;;;;;;;;5.60;100.00;100750.88;4976126;28;19918;-82
2023/10/06 09:13:46;;;;;;;;;;;;;;;5.64;100.00;100747.31;4974602;28;19925;-81
2023/10/06 09:16:11;;;;;;;;;;;;;;;5.63;100.00;100755.22;4976157;28;19922;-79
2023/10/06 09:18:39;;;;;;;;;;;;;;;5.59;100.00;100743.84;4976021;28;19918;-79
2023/10/06 09:21:20;;;;;;;;;;;;;;;5.54;100.00;100745.66;4975941;28;19922;-79
2023/10/06 09:23:46;;;;;;;;;;;;;;;5.55;100.00;100738.63;4975787;28;19922;-79
2023/10/06 09:26:12;;;;;;;;;;;;;;;5.60;100.00;100740.34;4975936;28;20384;-79
2023/10/06 09:28:51;;;;;;;;;;;;;;;5.64;100.00;100739.44;4973252;28;19918;-81
2023/10/06 09:31:18;;;;;;;;;;;;;;;5.63;100.00;100736.81;4975824;28;19923;-80
2023/10/06 09:33:44;;;;;;;;;;;;;;;5.69;100.00;100733.28;4975595;28;19926;-79
2023/10/06 09:36:21;;;;;;;;;;;;;;;5.67;100.00;100722.78;4975677;28;20009;-79
2023/10/06 09:38:47;;;;;;;;;;;;;;;5.72;100.00;100725.38;4975762;28;19997;-79
2023/10/06 09:41:13;;;;;;;;;;;;;;;5.79;100.00;100720.06;4975720;28;20008;-78
2023/10/06 09:43:38;;;;;;;;;;;;;;;5.75;100.00;100718.31;4974086;28;20313;-78
2023/10/06 09:46:08;;;;;;;;;;;;;;;5.75;100.00;100727.97;4975545;28;20304;-78
2023/10/06 09:48:35;;;;;;;;;;;;;;;5.68;100.00;100727.16;4975517;28;19949;-79
2023/10/06 09:51:05;;;;;;;;;;;;;;;5.64;100.00;100714.91;4975435;28;19957;-78
2023/10/06 09:53:31;;;;;;;;;;;;;;;5.68;100.00;100721.00;4958187;28;19918;-80
2023/10/06 09:55:57;;;;;;;;;;;;;;;5.67;100.00;100714.03;4975268;28;19965;-79
2023/10/06 09:58:22;;;;;;;;;;;;;;;5.68;100.00;100715.75;4974350;28;19929;-79
2023/10/06 10:00:49;;;;;;;;;;;;;;;5.67;100.00;100714.88;4975112;28;19960;-79
2023/10/06 10:03:15;;;;;;;;;;;;;;;5.69;100.00;100713.09;4975131;28;19922;-81
2023/10/06 10:05:41;;;;;;;;;;;;;;;5.66;100.00;100715.75;4975275;28;19925;-79
2023/10/06 10:08:07;;;;;;;;;;;;;;;5.73;100.00;100717.47;4975081;28;20280;-80
2023/10/06 10:10:38;;;;;;;;;;;;;;;5.72;100.00;100723.59;4975272;28;19922;-81
2023/10/06 10:13:09;;;;;;;;;;;;;;;5.70;100.00;100714.84;4973598;28;20424;-78
2023/10/06 10:15:53;;;;;;;;;;;;;;;5.66;100.00;100709.63;4975026;28;20102;-79
2023/10/06 10:18:29;;;;;;;;;;;;;;;5.64;100.00;100707.88;4974570;28;20010;-78
2023/10/06 10:20:56;;;;;;;;;;;;;;;5.69;100.00;100701.72;4974061;28;19925;-80
2023/10/06 10:23:21;;;;;;;;;;;;;;;5.70;100.00;100699.09;4974704;28;19922;-79
2023/10/06 10:25:47;;;;;;;;;;;;;;;5.69;100.00;100692.06;4957299;28;20096;-81
2023/10/06 10:28:13;;;;;;;;;;;;;;;5.64;100.00;100700.00;4973427;28;20424;-78
2023/10/06 10:30:57;;;;;;;;;;;;;;;5.66;100.00;100696.47;4973458;28;20012;-79
2023/10/06 10:33:24;;;;;;;;;;;;;;;5.69;100.00;100691.19;4974653;28;19968;-81
2023/10/06 10:36:12;;;;;;;;;;;;;;;5.72;100.00;100686.78;4974597;28;19926;-79
2023/10/06 10:38:37;;;;;;;;;;;;;;;5.72;100.00;100691.19;4974276;28;19914;-78
2023/10/06 10:41:06;;;;;;;;;;;;;;;5.68;100.00;100687.72;4974323;28;20384;-80
2023/10/06 10:43:32;;;;;;;;;;;;;;;5.72;100.00;100685.91;4972929;28;19933;-80
2023/10/06 10:45:59;;;;;;;;;;;;;;;5.74;100.00;100679.75;4974437;28;19964;-80
2023/10/06 10:48:31;;;;;;;;;;;;;;;5.74;100.00;100684.13;4974401;28;19918;-79
2023/10/06 10:51:00;;;;;;;;;;;;;;;5.73;100.00;100678.03;4974233;28;19922;-79
2023/10/06 10:53:34;;;;;;;;;;;;;;;5.70;100.00;100671.94;4974374;28;19933;-80
2023/10/06 10:56:01;;;;;;;;;;;;;;;5.69;100.00;100676.28;4974249;28;19949;-81
2023/10/06 10:58:42;;;;;;;;;;;;;;;5.75;100.00;100664.84;4972939;28;19918;-79
2023/10/06 11:01:31;;;;;;;;;;;;;;;5.79;100.00;100671.81;4973172;28;19918;-79
2023/10/06 11:04:12;;;;;;;;;;;;;;;5.79;100.00;100664.81;4973966;28;19918;-79
2023/10/06 11:06:48;;;;;;;;;;;;;;;5.74;100.00;100661.34;4973362;28;20000;-79
2023/10/06 11:09:25;;;;;;;;;;;;;;;5.75;100.00;100659.59;4973853;28;19918;-79
2023/10/06 11:11:50;;;;;;;;;;;;;;;5.77;100.00;100663.06;4973296;28;20461;-79
2023/10/06 11:14:16;;;;;;;;;;;;;;;5.71;100.00;100649.97;4972611;28;20009;-80
2023/10/06 11:16:46;;;;;;;;;;;;;;;5.76;100.00;100645.53;4974009;28;19922;-80
2023/10/06 11:19:15;;;;;;;;;;;;;;;5.74;100.00;100642.94;4973711;28;19922;-81
2023/10/06 11:21:41;;;;;;;;;;;;;;;5.74;100.00;100644.69;4973825;28;19954;-82
2023/10/06 11:24:06;;;;;;;;;;;;;;;5.74;100.00;100644.69;4973574;28;19922;-81
2023/10/06 11:26:32;;;;;;;;;;;;;;;5.72;100.00;100638.59;4973499;28;19977;-78
2023/10/06 11:29:00;;;;;;;;;;;;;;;5.78;100.00;100639.41;4971907;28;19918;-79
2023/10/06 11:31:25;;;;;;;;;;;;;;;5.81;100.00;100639.38;4973385;28;19919;-78
2023/10/06 11:33:51;;;;;;;;;;;;;;;5.77;100.00;100639.41;4973900;28;19922;-78
2023/10/06 11:36:16;;;;;;;;;;;;;;;5.72;100.00;100633.31;4973565;28;20373;-80
2023/10/06 11:38:42;;;;;;;;;;;;;;;5.74;100.00;100632.41;4973568;28;20382;-79
2023/10/06 11:41:07;;;;;;;;;;;;;;;5.76;100.00;100621.88;4973323;28;20056;-79
2023/10/06 11:43:33;;;;;;;;;;;;;;;5.76;100.00;100624.50;4972013;28;19927;-80
2023/10/06 11:46:02;;;;;;;;;;;;;;;5.72;100.00;100621.03;4971938;28;19918;-79
2023/10/06 11:48:34;;;;;;;;;;;;;;;5.73;100.00;100620.16;4973348;28;19918;-80
2023/10/06 11:51:06;;;;;;;;;;;;;;;5.77;100.00;100615.75;4973556;28;19941;-79
2023/10/06 11:53:32;;;;;;;;;;;;;;;5.73;100.00;100620.16;4973399;28;19968;-78
2023/10/06 11:56:12;;;;;;;;;;;;;;;5.70;100.00;100609.66;4973253;28;20330;-80
2023/10/06 11:58:39;;;;;;;;;;;;;;;5.67;100.00;100599.19;4971964;28;20381;-79
2023/10/06 12:01:05;;;;;;;;;;;;;;;5.69;100.00;100602.66;4973155;28;19922;-79
2023/10/06 12:03:39;;;;;;;;;;;;;;;5.68;100.00;100600.03;4973325;28;20274;-79
2023/10/06 12:06:07;;;;;;;;;;;;;;;5.71;100.00;100606.16;4972530;28;19918;-79
2023/10/06 12:08:40;;;;;;;;;;;;;;;5.75;100.00;100601.75;4972376;28;19926;-79
2023/10/06 12:11:07;;;;;;;;;;;;;;;5.77;100.00;100599.97;4971452;28;19924;-81
2023/10/06 12:13:32;;;;;;;;;;;;;;;5.80;100.00;100586.78;4971941;28;20005;-79
2023/10/06 12:15:57;;;;;;;;;;;;;;;5.77;100.00;100586.81;4973131;28;19923;-81
2023/10/06 12:18:23;;;;;;;;;;;;;;;5.81;100.00;100575.38;4973261;28;19919;-79
2023/10/06 12:20:48;;;;;;;;;;;;;;;5.82;100.00;100571.84;4972951;28;19922;-79
2023/10/06 12:23:13;;;;;;;;;;;;;;;5.80;100.00;100573.63;4972925;28;19919;-80
2023/10/06 12:25:39;;;;;;;;;;;;;;;5.82;100.00;100571.84;4973013;28;19918;-80
2023/10/06 12:28:04;;;;;;;;;;;;;;;5.78;100.00;100564.91;4971779;28;19925;-80
2023/10/06 12:30:29;;;;;;;;;;;;;;;5.82;100.00;100569.22;4973072;28;19924;-80
2023/10/06 12:32:55;;;;;;;;;;;;;;;5.79;100.00;100558.72;4972985;28;20005;-79
2023/10/06 12:35:28;;;;;;;;;;;;;;;5.81;100.00;100555.19;4972877;28;20289;-79
2023/10/06 12:37:54;;;;;;;;;;;;;;;5.79;100.00;100557.00;4972891;28;19922;-80
2023/10/06 12:40:19;;;;;;;;;;;;;;;5.79;100.00;100561.34;4973149;28;19922;-79
2023/10/06 12:42:44;;;;;;;;;;;;;;;5.81;100.00;100559.59;4975223;28;19918;-80
2023/10/06 12:45:13;;;;;;;;;;;;;;;5.81;100.00;100559.59;4976442;28;19926;-80
2023/10/06 12:47:39;;;;;;;;;;;;;;;5.78;100.00;100554.38;4959275;28;19922;-81
2023/10/06 12:50:08;;;;;;;;;;;;;;;5.78;100.00;100562.25;4976241;28;19918;-79
2023/10/06 12:52:34;;;;;;;;;;;;;;;5.79;100.00;100550.84;4976563;28;19922;-79
2023/10/06 12:55:00;;;;;;;;;;;;;;;5.77;100.00;100552.63;4976496;28;20301;-79
2023/10/06 12:57:25;;;;;;;;;;;;;;;5.82;100.00;100559.59;4974176;28;20358;-81
2023/10/06 12:59:51;;;;;;;;;;;;;;;5.87;100.00;100558.66;4976428;28;19922;-82
2023/10/06 13:02:24;;;;;;;;;;;;;;;5.81;100.00;100544.69;4976178;28;20288;-80
2023/10/06 13:04:50;;;;;;;;;;;;;;;5.77;100.00;100542.09;4976008;28;19968;-80
2023/10/06 13:07:16;;;;;;;;;;;;;;;5.74;100.00;100542.13;4976186;28;19957;-80
2023/10/06 13:09:42;;;;;;;;;;;;;;;5.75;100.00;100541.25;4976251;28;19981;-81
2023/10/06 13:12:08;;;;;;;;;;;;;;;5.78;100.00;100538.59;4975400;28;19914;-79
2023/10/06 13:14:34;;;;;;;;;;;;;;;5.75;100.00;100528.09;4973464;28;19926;-80
2023/10/06 13:16:59;;;;;;;;;;;;;;;5.77;100.00;100536.84;4975934;28;19918;-81
2023/10/06 13:19:24;;;;;;;;;;;;;;;5.76;100.00;100533.34;4975989;28;19918;-81
2023/10/06 13:21:52;;;;;;;;;;;;;;;5.85;100.00;100535.00;4974812;28;19922;-81
2023/10/06 13:24:17;;;;;;;;;;;;;;;5.78;100.00;100536.81;4976114;28;19925;-81
2023/10/06 13:26:42;;;;;;;;;;;;;;;5.76;100.00;100535.09;4975846;28;20385;-80
2023/10/06 13:29:08;;;;;;;;;;;;;;;5.74;100.00;100534.25;4973577;28;20492;-80
2023/10/06 13:31:34;;;;;;;;;;;;;;;5.71;100.00;100537.81;4975660;28;19926;-81
2023/10/06 13:33:59;;;;;;;;;;;;;;;5.74;100.00;100536.88;4975780;28;19919;-81
2023/10/06 13:36:25;;;;;;;;;;;;;;;5.72;100.00;100533.41;4975575;28;19922;-78
2023/10/06 13:38:50;;;;;;;;;;;;;;;5.73;100.00;100532.53;4974535;28;19969;-79
2023/10/06 13:41:18;;;;;;;;;;;;;;;5.74;100.00;100531.63;4975598;28;19922;-80
2023/10/06 13:43:43;;;;;;;;;;;;;;;5.73;100.00;100529.91;4974105;28;20336;-80
2023/10/06 13:46:12;;;;;;;;;;;;;;;5.75;100.00;100520.22;4975545;28;19918;-80
2023/10/06 13:48:37;;;;;;;;;;;;;;;5.80;100.00;100526.28;4975542;28;19920;-80
2023/10/06 13:51:02;;;;;;;;;;;;;;;5.81;100.00;100522.78;4975493;28;19926;-79
2023/10/06 13:53:28;;;;;;;;;;;;;;;5.74;100.00;100521.09;4973135;28;20008;-79
2023/10/06 13:55:54;;;;;;;;;;;;;;;5.78;100.00;100515.78;4975464;28;19914;-78
2023/10/06 13:58:21;;;;;;;;;;;;;;;5.77;100.00;100521.06;4974088;28;19918;-79
2023/10/06 14:00:46;;;;;;;;;;;;;;;5.70;100.00;100517.63;4975174;28;20333;-79
2023/10/06 14:03:13;;;;;;;;;;;;;;;5.70;100.00;100515.00;4975153;28;19922;-79
2023/10/06 14:05:42;;;;;;;;;;;;;;;5.71;100.00;100506.25;4973943;28;19918;-80
2023/10/06 14:08:08;;;;;;;;;;;;;;;5.76;100.00;100509.69;4975012;28;20016;-81
2023/10/06 14:10:37;;;;;;;;;;;;;;;5.75;100.00;100513.19;4957848;28;19929;-81
2023/10/06 14:13:08;;;;;;;;;;;;;;;5.72;100.00;100509.72;4974138;28;19925;-81
2023/10/06 14:15:41;;;;;;;;;;;;;;;5.74;100.00;100513.22;4974353;28;20053;-82
2023/10/06 14:18:12;;;;;;;;;;;;;;;5.73;100.00;100514.13;4975065;28;19918;-82
2023/10/06 14:20:43;;;;;;;;;;;;;;;5.74;100.00;100507.94;4974872;28;19921;-80
2023/10/06 14:23:12;;;;;;;;;;;;;;;5.73;100.00;100511.47;4974747;28;20259;-82
2023/10/06 14:25:38;;;;;;;;;;;;;;;5.75;100.00;100513.19;4974829;28;19922;-81
2023/10/06 14:28:03;;;;;;;;;;;;;;;5.83;100.00;100513.09;4956134;28;19984;-81
2023/10/06 14:30:30;;;;;;;;;;;;;;;5.79;100.00;100521.91;4974688;28;19986;-80
2023/10/06 14:35:45;;;;;;;;;;;;;;;5.80;100.00;100527.16;4974343;28;19929;-80
2023/10/06 14:46:23;;;;;;;;;;;;;;;5.84;100.00;100512.22;4974628;28;19942;-82
2023/10/06 14:48:48;;;;;;;;;;;;;;;5.80;100.00;100519.25;4974315;28;19918;-80
2023/10/06 14:51:13;;;;;;;;;;;;;;;5.81;100.00;100518.38;4972182;28;19961;-84
2023/10/06 14:53:39;;;;;;;;;;;;;;;5.80;100.00;100511.38;4974247;28;20289;-81
2023/10/06 14:56:04;;;;;;;;;;;;;;;5.81;100.00;100513.13;4974289;28;19971;-80
2023/10/06 14:58:30;;;;;;;;;;;;;;;5.78;100.00;100515.78;4972871;28;19922;-81
2023/10/06 15:01:07;;;;;;;;;;;;;;;5.81;100.00;100513.13;4973401;28;19918;-81
2023/10/06 15:03:33;;;;;;;;;;;;;;;5.77;100.00;100502.66;4973904;28;19922;-80
2023/10/06 15:06:04;;;;;;;;;;;;;;;5.82;100.00;100498.19;4974107;28;19937;-80
2023/10/06 15:08:33;;;;;;;;;;;;;;;5.84;100.00;100501.72;4974210;28;20005;-81
2023/10/06 15:10:58;;;;;;;;;;;;;;;5.79;100.00;100495.59;4973430;28;19918;-81
2023/10/06 15:13:24;;;;;;;;;;;;;;;5.79;100.00;100492.97;4972544;28;19918;-80
2023/10/06 15:15:49;;;;;;;;;;;;;;;5.82;100.00;100495.56;4973988;28;19918;-80
2023/10/06 15:18:15;;;;;;;;;;;;;;;5.79;100.00;100504.38;4973870;28;19953;-81
2023/10/06 15:20:42;;;;;;;;;;;;;;;5.74;100.00;100500.06;4973916;28;19918;-82
2023/10/06 15:23:15;;;;;;;;;;;;;;;5.80;100.00;100489.47;4955848;28;19918;-80
2023/10/06 15:26:03;;;;;;;;;;;;;;;5.82;100.00;100487.69;4971944;28;19922;-82
2023/10/06 15:28:30;;;;;;;;;;;;;;;5.85;100.00;100495.53;4970173;28;19924;-82
2023/10/06 15:30:56;;;;;;;;;;;;;;;5.90;100.00;100485.81;4956356;28;20365;-80
2023/10/06 15:33:22;;;;;;;;;;;;;;;5.88;100.00;100487.59;4973594;28;19996;-80
2023/10/06 15:35:48;;;;;;;;;;;;;;;5.89;100.00;100493.72;4972912;28;19944;-80
2023/10/06 15:38:19;;;;;;;;;;;;;;;5.88;100.00;100495.50;4973517;28;20288;-81
2023/10/06 15:40:44;;;;;;;;;;;;;;;5.90;100.00;100492.84;4956155;28;19924;-81
2023/10/06 15:43:09;;;;;;;;;;;;;;;5.86;100.00;100494.66;4972383;28;20016;-80
2023/10/06 15:45:36;;;;;;;;;;;;;;;5.85;100.00;100492.91;4973095;28;19933;-80
2023/10/06 15:48:03;;;;;;;;;;;;;;;5.81;100.00;100480.69;4973522;28;19949;-79
2023/10/06 15:50:29;;;;;;;;;;;;;;;5.81;100.00;100492.09;4955027;28;19934;-79
2023/10/06 15:52:54;;;;;;;;;;;;;;;5.77;100.00;100498.25;4973652;28;19918;-80
2023/10/06 15:55:19;;;;;;;;;;;;;;;5.80;100.00;100492.09;4973379;28;19918;-80
2023/10/06 15:57:44;;;;;;;;;;;;;;;5.78;100.00;100491.25;4971936;28;20325;-80
2023/10/06 16:00:12;;;;;;;;;;;;;;;5.75;100.00;100483.41;4973436;28;19965;-80
2023/10/06 16:02:43;;;;;;;;;;;;;;;5.81;100.00;100483.34;4973214;28;20489;-81
2023/10/06 16:05:09;;;;;;;;;;;;;;;5.79;100.00;100487.72;4973327;28;19918;-80
2023/10/06 16:07:37;;;;;;;;;;;;;;;5.75;100.00;100486.03;4973333;28;20425;-82
2023/10/06 16:10:02;;;;;;;;;;;;;;;5.73;100.00;100488.69;4955881;28;20424;-80
2023/10/06 16:12:28;;;;;;;;;;;;;;;5.76;100.00;100493.00;4972009;28;19918;-80
2023/10/06 16:14:53;;;;;;;;;;;;;;;5.73;100.00;100480.78;4973224;28;19922;-80
2023/10/06 16:17:18;;;;;;;;;;;;;;;5.66;100.00;100481.72;4976412;28;19919;-80
2023/10/06 16:19:44;;;;;;;;;;;;;;;5.72;100.00;100483.44;4977096;28;20285;-79
2023/10/06 16:22:09;;;;;;;;;;;;;;;5.72;100.00;100486.94;4977317;28;19918;-80
2023/10/06 16:24:34;;;;;;;;;;;;;;;5.77;100.00;100478.97;4975756;28;19972;-81
2023/10/06 16:27:00;;;;;;;;;;;;;;;5.86;100.00;100478.88;4977116;28;19918;-80
2023/10/06 16:29:26;;;;;;;;;;;;;;;5.79;100.00;100483.34;4975645;28;20350;-80
2023/10/06 16:31:51;;;;;;;;;;;;;;;5.75;100.00;100480.78;4976983;28;19920;-82
2023/10/06 16:34:18;;;;;;;;;;;;;;;5.79;100.00;100477.19;4976853;28;19922;-80
2023/10/06 16:36:44;;;;;;;;;;;;;;;5.67;100.00;100477.38;4976136;28;19922;-80
2023/10/06 16:39:21;;;;;;;;;;;;;;;5.66;100.00;100478.25;4976815;28;19919;-82
2023/10/06 16:41:47;;;;;;;;;;;;;;;5.71;100.00;100479.94;4976676;28;19941;-81
2023/10/06 16:44:13;;;;;;;;;;;;;;;5.72;100.00;100481.66;4974419;28;19922;-80
2023/10/06 16:46:38;;;;;;;;;;;;;;;5.79;100.00;100482.47;4976572;28;19928;-80
2023/10/06 16:49:03;;;;;;;;;;;;;;;5.79;100.00;100482.47;4976584;28;20337;-80
2023/10/06 16:51:32;;;;;;;;;;;;;;;5.75;100.00;100486.03;4976516;28;19918;-81
2023/10/06 16:53:59;;;;;;;;;;;;;;;5.71;100.00;100482.56;4976401;28;20389;-80
2023/10/06 16:56:25;;;;;;;;;;;;;;;5.70;100.00;100482.59;4975869;28;19930;-79
2023/10/06 16:58:50;;;;;;;;;;;;;;;5.74;100.00;100492.16;4975514;28;19961;-81
2023/10/06 17:01:16;;;;;;;;;;;;;;;5.74;100.00;100492.16;4976361;28;20811;-81
2023/10/06 17:03:41;;;;;;;;;;;;;;;5.80;100.00;100486.84;4976245;28;20285;-81
2023/10/06 17:06:11;;;;;;;;;;;;;;;5.74;100.00;100490.41;4976455;28;19929;-84
2023/10/06 17:08:36;;;;;;;;;;;;;;;5.62;100.00;100496.69;4973652;28;20404;-80
2023/10/06 17:11:14;;;;;;;;;;;;;;;5.76;100.00;100500.91;4976340;28;19922;-81
2023/10/06 17:13:39;;;;;;;;;;;;;;;5.71;100.00;100498.34;4972274;28;19925;-80
2023/10/06 17:16:09;;;;;;;;;;;;;;;5.82;100.00;100498.19;4975420;28;19922;-80
2023/10/06 17:18:34;;;;;;;;;;;;;;;5.81;100.00;100496.47;4973592;28;19980;-81
2023/10/06 17:20:59;;;;;;;;;;;;;;;5.82;100.00;100498.19;4975760;28;19925;-81
2023/10/06 17:23:24;;;;;;;;;;;;;;;5.77;100.00;100500.03;4974589;28;19985;-80
2023/10/06 17:25:50;;;;;;;;;;;;;;;5.71;100.00;100502.72;4973788;28;19945;-80
2023/10/06 17:28:15;;;;;;;;;;;;;;;5.77;100.00;100505.28;4954012;28;19945;-80
2023/10/06 17:30:40;;;;;;;;;;;;;;;5.73;100.00;100498.34;4974102;28;19981;-80
2023/10/06 17:33:08;;;;;;;;;;;;;;;5.63;100.00;100502.81;4971996;28;19968;-81
2023/10/06 17:35:34;;;;;;;;;;;;;;;5.70;100.00;100495.75;4973576;28;19930;-80
2023/10/06 17:37:59;;;;;;;;;;;;;;;5.71;100.00;100502.72;4956826;28;19926;-80
2023/10/06 17:40:25;;;;;;;;;;;;;;;5.78;100.00;100504.41;4974246;28;19926;-80
2023/10/06 17:42:53;;;;;;;;;;;;;;;5.74;100.00;100510.56;4970478;28;19926;-81
2023/10/06 17:45:19;;;;;;;;;;;;;;;5.76;100.00;100511.41;4971381;28;19922;-81
2023/10/06 17:47:44;;;;;;;;;;;;;;;5.72;100.00;100510.59;4973659;28;20411;-81
2023/10/06 17:50:12;;;;;;;;;;;;;;;5.64;100.00;100520.34;4973922;28;20313;-79
2023/10/06 17:52:38;;;;;;;;;;;;;;;5.74;100.00;100521.09;4957134;28;19928;-80
2023/10/06 17:55:08;;;;;;;;;;;;;;;5.76;100.00;100517.56;4975456;28;19918;-81
2023/10/06 17:57:34;;;;;;;;;;;;;;;5.63;100.00;100519.47;4974056;28;19926;-81
2023/10/06 18:00:00;;;;;;;;;;;;;;;5.64;100.00;100523.81;4974558;28;20821;-81
2023/10/06 18:02:25;;;;;;;;;;;;;;;5.58;100.00;100526.50;4973594;28;20032;-81
2023/10/06 18:04:51;;;;;;;;;;;;;;;5.69;100.00;100529.03;4974486;28;19926;-80
2023/10/06 18:07:18;;;;;;;;;;;;;;;5.76;100.00;100528.09;4975233;28;19914;-79
2023/10/06 18:09:43;;;;;;;;;;;;;;;5.70;100.00;100525.53;4975057;28;19985;-79
2023/10/06 18:12:08;;;;;;;;;;;;;;;5.68;100.00;100526.41;4973162;28;19954;-79
2023/10/06 18:14:35;;;;;;;;;;;;;;;5.68;100.00;100521.16;4973835;28;20293;-80
2023/10/06 18:17:00;;;;;;;;;;;;;;;5.70;100.00;100524.66;4953583;28;21000;-82
2023/10/06 18:19:27;;;;;;;;;;;;;;;5.70;100.00;100525.53;4965849;28;19965;-81
2023/10/06 18:21:53;;;;;;;;;;;;;;;5.70;100.00;100519.41;4972885;28;20317;-81
2023/10/06 18:24:18;;;;;;;;;;;;;;;7.86;100.00;100531.91;4974214;28;19929;-81
2023/10/06 18:26:44;;;;;;;;;;;;;;;6.57;100.00;100527.94;4956070;28;20408;-81
2023/10/06 18:29:10;;;;;;;;;;;;;;;6.09;100.00;100525.97;4970170;28;19930;-79
2023/10/06 18:31:35;;;;;;;;;;;;;;;5.95;100.00;100528.75;4956308;28;19949;-78
2023/10/06 18:34:01;;;;;;;;;;;;;;;5.92;100.00;100530.53;4971991;28;20020;-83
2023/10/06 18:36:28;;;;;;;;;;;;;;;5.92;100.00;100536.69;4953704;28;20000;-83
2023/10/06 18:38:56;;;;;;;;;;;;;;;5.91;100.00;100532.28;4972692;28;19930;-80
2023/10/06 18:41:22;;;;;;;;;;;;;;;5.86;100.00;100536.75;4974043;28;19926;-81
2023/10/06 18:43:48;;;;;;;;;;;;;;;5.85;100.00;100536.75;4972774;28;19922;-82
2023/10/06 18:46:14;;;;;;;;;;;;;;;5.79;100.00;100537.69;4972315;28;20029;-83
2023/10/06 18:48:40;;;;;;;;;;;;;;;5.85;100.00;100531.50;4954216;28;19964;-85
2023/10/06 18:51:06;;;;;;;;;;;;;;;5.87;100.00;100533.22;4974016;28;19922;-83
2023/10/06 18:53:32;;;;;;;;;;;;;;;5.76;100.00;100530.72;4974211;28;20397;-84
2023/10/06 18:55:59;;;;;;;;;;;;;;;5.72;100.00;100534.25;4973752;28;19922;-84
2023/10/06 18:58:25;;;;;;;;;;;;;;;5.69;100.00;100531.66;4971850;28;19926;-81
2023/10/06 19:00:53;;;;;;;;;;;;;;;5.72;100.00;100529.00;4972079;28;19934;-79
2023/10/06 19:03:19;;;;;;;;;;;;;;;5.67;100.00;100529.94;4973195;28;19926;-85
2023/10/06 19:05:46;;;;;;;;;;;;;;;5.71;100.00;100529.00;4973879;28;20000;-88